createdAt,value
2023-01-10T00:00:56.805Z,1.95
2023-01-10T00:03:23.818Z,1.73
2023-01-10T00:05:50.716Z,4.28
2023-01-10T00:08:18.335Z,5.05
2023-01-10T00:10:45.155Z,4.18
2023-01-10T00:13:26.110Z,4.25
2023-01-10T00:15:55.201Z,2.92
2023-01-10T00:18:22.866Z,2.80
2023-01-10T00:20:50.241Z,2.33
2023-01-10T00:23:18.646Z,2.17
2023-01-10T00:25:46.925Z,1.92
2023-01-10T00:28:20.085Z,1.75
2023-01-10T00:31:01.250Z,2.63
2023-01-10T00:33:31.702Z,1.98
2023-01-10T00:36:04.149Z,1.95
2023-01-10T00:38:33.232Z,2.28
2023-01-10T00:41:00.756Z,1.92
2023-01-10T00:43:46.420Z,1.88
2023-01-10T00:46:13.425Z,2.08
2023-01-10T00:48:41.737Z,1.55
2023-01-10T00:51:08.563Z,1.67
2023-01-10T00:53:35.604Z,1.88
2023-01-10T00:56:02.518Z,1.77
2023-01-10T00:58:29.531Z,2.30
2023-01-10T01:00:56.471Z,1.65
2023-01-10T01:03:23.363Z,1.70
2023-01-10T01:05:51.038Z,2.55
2023-01-10T01:08:19.317Z,2.15
2023-01-10T01:10:46.773Z,1.75
2023-01-10T01:13:21.995Z,2.17
2023-01-10T01:15:49.317Z,2.03
2023-01-10T01:18:21.048Z,1.77
2023-01-10T01:20:53.464Z,2.03
2023-01-10T01:23:20.615Z,1.67
2023-01-10T01:25:51.792Z,2.10
2023-01-10T01:28:19.378Z,2.00
2023-01-10T01:30:47.202Z,2.13
2023-01-10T01:33:14.782Z,2.08
2023-01-10T01:35:44.371Z,2.30
2023-01-10T01:38:12.130Z,1.95
2023-01-10T01:40:41.381Z,2.38
2023-01-10T01:43:29.404Z,2.20
2023-01-10T01:46:02.953Z,2.22
2023-01-10T01:48:42.965Z,1.90
2023-01-10T01:51:23.113Z,2.05
2023-01-10T01:53:55.278Z,2.53
2023-01-10T01:56:51.997Z,1.73
2023-01-10T01:59:30.741Z,2.05
2023-01-10T02:02:14.644Z,2.00
2023-01-10T02:04:52.555Z,3.03
2023-01-10T02:07:20.763Z,2.55
2023-01-10T02:10:06.682Z,2.15
2023-01-10T02:12:34.508Z,2.17
2023-01-10T02:15:04.033Z,2.50
2023-01-10T02:17:30.885Z,2.40
2023-01-10T02:20:03.878Z,2.10
2023-01-10T02:23:13.595Z,1.85
2023-01-10T02:25:46.490Z,2.53
2023-01-10T02:28:53.659Z,2.13
2023-01-10T02:31:59.032Z,1.98
2023-01-10T02:34:40.026Z,2.58
2023-01-10T02:37:23.425Z,2.38
2023-01-10T02:39:59.096Z,2.28
2023-01-10T02:42:36.977Z,2.58
2023-01-10T02:45:12.903Z,2.20
2023-01-10T02:47:41.515Z,2.10
2023-01-10T02:50:44.979Z,2.58
2023-01-10T02:53:21.486Z,2.28
2023-01-10T02:56:08.147Z,2.42
2023-01-10T02:59:15.239Z,2.40
2023-01-10T03:02:02.326Z,1.93
2023-01-10T03:07:55.877Z,1.90
2023-01-10T03:10:34.109Z,1.80
2023-01-10T03:13:14.168Z,1.70
2023-01-10T03:15:42.463Z,3.13
2023-01-10T03:18:16.617Z,1.90
2023-01-10T03:20:47.148Z,2.17
2023-01-10T03:23:16.961Z,2.00
2023-01-10T03:25:46.315Z,1.83
2023-01-10T03:28:26.646Z,1.90
2023-01-10T03:31:11.819Z,2.50
2023-01-10T03:33:40.177Z,2.33
2023-01-10T03:36:45.916Z,2.15
2023-01-10T03:39:21.398Z,2.80
2023-01-10T03:42:19.368Z,1.85
2023-01-10T03:45:01.950Z,2.60
2023-01-10T03:47:38.769Z,2.83
2023-01-10T03:50:27.014Z,2.45
2023-01-10T03:52:53.859Z,2.70
2023-01-10T03:55:26.845Z,2.50
2023-01-10T03:57:53.906Z,2.40
2023-01-10T04:00:21.551Z,2.33
2023-01-10T04:02:48.671Z,2.83
2023-01-10T04:05:15.803Z,3.00
2023-01-10T04:07:42.709Z,2.47
2023-01-10T04:10:10.735Z,2.35
2023-01-10T04:12:37.750Z,2.60
2023-01-10T04:15:05.672Z,2.90
2023-01-10T04:17:32.584Z,2.63
2023-01-10T04:19:59.522Z,2.90
2023-01-10T04:22:26.747Z,2.50
2023-01-10T04:24:54.524Z,2.63
2023-01-10T04:27:21.482Z,3.00
2023-01-10T04:29:48.959Z,2.42
2023-01-10T04:32:16.001Z,3.00
2023-01-10T04:34:42.914Z,2.90
2023-01-10T04:37:09.888Z,3.20
2023-01-10T04:39:36.965Z,3.97
2023-01-10T04:42:03.889Z,3.20
2023-01-10T04:44:31.056Z,2.95
2023-01-10T04:46:57.981Z,4.55
2023-01-10T04:49:25.143Z,3.67
2023-01-10T04:51:51.987Z,3.40
2023-01-10T04:54:23.108Z,3.70
2023-01-10T04:56:50.192Z,3.40
2023-01-10T04:59:17.510Z,4.30
2023-01-10T05:01:44.674Z,3.75
2023-01-10T05:04:12.313Z,4.32
2023-01-10T05:06:40.197Z,3.53
2023-01-10T05:09:08.905Z,3.63
2023-01-10T05:11:35.833Z,3.95
2023-01-10T05:14:03.181Z,4.30
2023-01-10T05:16:30.309Z,3.88
2023-01-10T05:18:57.291Z,3.53
2023-01-10T05:21:24.605Z,4.00
2023-01-10T05:23:51.449Z,3.75
2023-01-10T05:26:22.344Z,4.45
2023-01-10T05:28:49.732Z,3.42
2023-01-10T05:31:19.761Z,3.53
2023-01-10T05:33:51.888Z,4.22
2023-01-10T05:36:20.118Z,3.70
2023-01-10T05:38:47.388Z,4.03
2023-01-10T05:41:14.848Z,3.65
2023-01-10T05:43:41.890Z,4.38
2023-01-10T05:46:09.468Z,3.88
2023-01-10T05:48:37.019Z,4.07
2023-01-10T05:51:04.123Z,4.05
2023-01-10T05:53:31.124Z,4.70
2023-01-10T05:56:00.901Z,4.07
2023-01-10T05:58:29.588Z,4.03
2023-01-10T06:00:58.236Z,6.20
2023-01-10T06:03:26.432Z,3.92
2023-01-10T06:05:57.321Z,3.85
2023-01-10T06:08:25.593Z,6.43
2023-01-10T06:10:53.155Z,5.10
2023-01-10T06:13:20.193Z,4.90
2023-01-10T06:15:47.256Z,4.57
2023-01-10T06:18:14.659Z,4.28
2023-01-10T06:20:43.417Z,4.07
2023-01-10T06:23:10.805Z,4.10
2023-01-10T06:25:40.651Z,4.88
2023-01-10T06:28:13.571Z,4.53
2023-01-10T06:30:43.382Z,4.43
2023-01-10T06:33:12.186Z,4.53
2023-01-10T06:35:39.642Z,4.25
2023-01-10T06:38:06.674Z,3.90
2023-01-10T06:40:33.884Z,3.80
2023-01-10T06:43:00.952Z,4.85
2023-01-10T06:45:28.092Z,4.55
2023-01-10T06:47:55.258Z,4.43
2023-01-10T06:50:22.703Z,4.55
2023-01-10T06:52:58.568Z,6.03
2023-01-10T06:55:26.740Z,4.60
2023-01-10T06:58:02.067Z,4.47
2023-01-10T07:00:30.224Z,4.55
2023-01-10T07:03:02.477Z,4.63
2023-01-10T07:05:30.583Z,4.72
2023-01-10T07:07:58.990Z,6.65
2023-01-10T07:10:25.965Z,4.20
2023-01-10T07:12:55.802Z,5.85
2023-01-10T07:15:22.890Z,4.18
2023-01-10T07:17:50.350Z,5.10
2023-01-10T07:20:17.993Z,5.10
2023-01-10T07:22:45.087Z,4.78
2023-01-10T07:25:12.117Z,5.65
2023-01-10T07:27:43.198Z,4.82
2023-01-10T07:30:11.263Z,4.47
2023-01-10T07:32:38.555Z,5.10
2023-01-10T07:35:05.752Z,4.88
2023-01-10T07:37:33.029Z,5.53
2023-01-10T07:39:59.901Z,5.18
2023-01-10T07:42:27.003Z,4.80
2023-01-10T07:44:53.872Z,5.38
2023-01-10T07:47:21.045Z,5.90
2023-01-10T07:49:47.996Z,4.80
2023-01-10T07:52:15.139Z,5.70
2023-01-10T07:54:42.398Z,6.03
2023-01-10T07:57:09.271Z,5.55
2023-01-10T07:59:36.238Z,6.10
2023-01-10T08:02:03.129Z,5.95
2023-01-10T08:04:30.140Z,5.63
2023-01-10T08:06:57.039Z,5.70
2023-01-10T08:09:23.936Z,5.20
2023-01-10T08:11:51.103Z,5.35
2023-01-10T08:14:18.013Z,5.78
2023-01-10T08:16:45.386Z,5.65
2023-01-10T08:19:16.644Z,6.07
2023-01-10T08:21:44.401Z,6.47
2023-01-10T08:24:11.390Z,5.50
2023-01-10T08:26:38.698Z,6.20
2023-01-10T08:29:05.660Z,5.45
2023-01-10T08:31:32.837Z,5.75
2023-01-10T08:33:59.928Z,5.03
2023-01-10T08:36:28.844Z,6.82
2023-01-10T08:38:56.378Z,5.72
2023-01-10T08:41:23.455Z,5.20
2023-01-10T08:43:50.819Z,5.93
2023-01-10T08:46:20.105Z,6.32
2023-01-10T08:48:50.165Z,5.50
2023-01-10T08:51:17.800Z,5.53
2023-01-10T08:53:45.051Z,6.15
2023-01-10T08:56:12.298Z,5.88
2023-01-10T08:58:39.312Z,5.38
2023-01-10T09:01:08.138Z,5.30
2023-01-10T09:03:35.615Z,5.25
2023-01-10T09:06:02.775Z,5.38
2023-01-10T09:08:29.769Z,5.82
2023-01-10T09:11:02.720Z,6.13
2023-01-10T09:13:30.589Z,6.32
2023-01-10T09:15:58.736Z,5.90
2023-01-10T09:18:26.757Z,6.43
2023-01-10T09:20:54.337Z,5.70
2023-01-10T09:23:23.321Z,6.15
2023-01-10T09:25:54.627Z,5.20
2023-01-10T09:28:24.178Z,4.60
2023-01-10T09:30:51.469Z,4.93
2023-01-10T09:33:19.171Z,5.25
2023-01-10T09:35:46.320Z,4.57
2023-01-10T09:38:19.110Z,4.80
2023-01-10T09:40:51.658Z,5.00
2023-01-10T09:44:05.919Z,4.18
2023-01-10T09:46:58.997Z,4.80
2023-01-10T09:49:52.580Z,3.95
2023-01-10T09:52:35.204Z,4.53
2023-01-10T09:55:19.046Z,3.75
2023-01-10T09:57:46.464Z,4.45
2023-01-10T10:00:24.215Z,4.47
2023-01-10T10:02:53.318Z,4.43
2023-01-10T10:05:24.987Z,4.30
2023-01-10T10:08:02.341Z,4.45
2023-01-10T10:10:39.256Z,3.60
2023-01-10T10:13:28.983Z,4.45
2023-01-10T10:16:14.338Z,3.55
2023-01-10T10:19:16.459Z,3.38
2023-01-10T10:22:19.740Z,3.90
2023-01-10T10:25:29.060Z,3.53
2023-01-10T10:27:55.809Z,3.67
2023-01-10T10:30:57.974Z,4.63
2023-01-10T10:34:14.801Z,4.50
2023-01-10T10:37:01.319Z,4.00
2023-01-10T10:39:43.484Z,3.45
2023-01-10T10:42:16.990Z,3.25
2023-01-10T10:44:50.665Z,4.30
2023-01-10T10:47:21.367Z,4.05
2023-01-10T10:50:15.833Z,4.20
2023-01-10T10:52:44.822Z,3.67
2023-01-10T10:55:23.374Z,4.15
2023-01-10T10:57:59.748Z,3.70
2023-01-10T11:00:29.304Z,3.42
2023-01-10T11:03:06.022Z,3.75
2023-01-10T11:05:37.254Z,3.72
2023-01-10T11:08:10.097Z,3.33
2023-01-10T11:10:39.218Z,3.40
2023-01-10T11:13:32.565Z,3.65
2023-01-10T11:16:05.715Z,3.08
2023-01-10T11:18:33.757Z,3.25
2023-01-10T11:21:14.738Z,3.30
2023-01-10T11:23:53.585Z,3.45
2023-01-10T11:26:41.131Z,4.07
2023-01-10T11:29:34.911Z,3.33
2023-01-10T11:32:14.993Z,2.83
2023-01-10T11:34:50.342Z,2.70
2023-01-10T11:37:18.708Z,3.30
2023-01-10T11:39:45.887Z,3.25
2023-01-10T11:42:30.624Z,3.22
2023-01-10T11:45:19.601Z,3.22
2023-01-10T11:48:30.152Z,3.30
2023-01-10T11:51:31.664Z,2.78
2023-01-10T11:54:05.716Z,3.05
2023-01-10T11:56:36.164Z,3.10
2023-01-10T11:59:19.042Z,2.55
2023-01-10T12:02:04.975Z,3.03
2023-01-10T12:04:40.806Z,3.03
2023-01-10T12:07:11.527Z,2.70
2023-01-10T12:09:45.132Z,3.20
2023-01-10T12:12:35.471Z,3.10
2023-01-10T12:15:30.378Z,2.70
2023-01-10T12:18:05.471Z,2.50
2023-01-10T12:20:52.760Z,2.83
2023-01-10T12:23:22.902Z,2.85
2023-01-10T12:25:55.245Z,2.85
2023-01-10T12:28:32.094Z,3.45
2023-01-10T12:31:01.273Z,2.95
2023-01-10T12:33:46.541Z,2.85
2023-01-10T12:36:28.935Z,2.88
2023-01-10T12:39:16.243Z,2.70
2023-01-10T12:42:16.438Z,3.30
2023-01-10T12:44:46.605Z,2.92
2023-01-10T12:47:32.491Z,3.75
2023-01-10T12:50:20.953Z,2.53
2023-01-10T12:53:25.762Z,2.40
2023-01-10T12:55:58.161Z,2.70
2023-01-10T12:58:45.194Z,2.83
2023-01-10T13:03:44.607Z,2.20
2023-01-10T13:06:27.774Z,2.30
2023-01-10T13:08:58.020Z,2.53
2023-01-10T13:11:30.445Z,2.35
2023-01-10T13:14:01.198Z,2.13
2023-01-10T13:16:40.163Z,2.45
2023-01-10T13:19:10.190Z,1.92
2023-01-10T13:21:42.328Z,3.20
2023-01-10T13:24:15.117Z,2.63
2023-01-10T13:27:01.804Z,2.10
2023-01-10T13:29:41.330Z,2.97
2023-01-10T13:32:29.157Z,2.20
2023-01-10T13:35:19.523Z,2.65
2023-01-10T13:37:55.364Z,2.22
2023-01-10T13:40:30.240Z,2.03
2023-01-10T13:43:36.370Z,2.47
2023-01-10T13:46:15.242Z,2.40
2023-01-10T13:49:03.624Z,2.53
2023-01-10T13:51:32.034Z,2.72
2023-01-10T13:54:04.677Z,2.92
2023-01-10T13:56:36.973Z,2.55
2023-01-10T13:59:41.910Z,2.65
2023-01-10T14:02:29.338Z,2.40
2023-01-10T14:05:08.148Z,2.67
2023-01-10T14:07:50.242Z,2.60
2023-01-10T14:10:25.600Z,2.22
2023-01-10T14:12:58.645Z,1.90
2023-01-10T14:15:45.823Z,2.20
2023-01-10T14:18:25.039Z,2.15
2023-01-10T14:21:02.675Z,2.47
2023-01-10T14:23:43.626Z,2.28
2023-01-10T14:26:32.684Z,2.20
2023-01-10T14:29:09.816Z,2.80
2023-01-10T14:31:38.602Z,2.92
2023-01-10T14:34:11.921Z,3.05
2023-01-10T14:36:52.109Z,2.90
2023-01-10T14:39:20.215Z,2.72
2023-01-10T14:41:53.620Z,3.22
2023-01-10T14:44:32.912Z,2.20
2023-01-10T14:47:04.488Z,2.35
2023-01-10T14:49:35.940Z,5.00
2023-01-10T14:52:24.729Z,3.25
2023-01-10T14:55:03.797Z,3.67
2023-01-10T14:57:30.936Z,3.45
2023-01-10T15:00:17.753Z,2.53
2023-01-10T15:02:49.149Z,2.53
2023-01-10T15:05:21.721Z,2.78
2023-01-10T15:07:48.564Z,2.88
2023-01-10T15:10:33.884Z,3.00
2023-01-10T15:13:05.658Z,3.25
2023-01-10T15:15:38.368Z,2.83
2023-01-10T15:18:30.664Z,2.85
2023-01-10T15:20:58.169Z,3.65
2023-01-10T15:23:28.263Z,2.70
2023-01-10T15:25:59.336Z,3.13
2023-01-10T15:28:30.100Z,3.20
2023-01-10T15:30:58.495Z,3.17
2023-01-10T15:33:29.745Z,2.70
2023-01-10T15:36:03.824Z,3.05
2023-01-10T15:38:34.310Z,3.17
2023-01-10T15:41:06.067Z,3.20
2023-01-10T15:43:36.935Z,3.08
2023-01-10T15:46:06.225Z,2.85
2023-01-10T15:48:37.659Z,2.78
2023-01-10T15:51:14.548Z,3.47
2023-01-10T15:54:04.024Z,3.63
2023-01-10T15:56:54.277Z,3.33
2023-01-10T15:59:33.107Z,4.00
2023-01-10T16:02:16.941Z,3.80
2023-01-10T16:04:46.383Z,4.97
2023-01-10T16:07:30.587Z,5.30
2023-01-10T16:10:09.234Z,4.88
2023-01-10T16:12:59.995Z,4.68
2023-01-10T16:15:35.345Z,3.90
2023-01-10T16:18:03.013Z,4.40
2023-01-10T16:20:32.199Z,4.07
2023-01-10T16:23:01.030Z,3.28
2023-01-10T16:25:33.183Z,3.92
2023-01-10T16:28:00.726Z,3.33
2023-01-10T16:30:32.166Z,4.82
2023-01-10T16:33:06.169Z,2.78
2023-01-10T16:35:33.189Z,3.70
2023-01-10T16:38:01.032Z,4.70
2023-01-10T16:40:43.551Z,2.90
2023-01-10T16:43:25.495Z,3.28
2023-01-10T16:45:59.753Z,4.13
2023-01-10T16:48:32.344Z,4.25
2023-01-10T16:51:24.174Z,3.80
2023-01-10T16:53:51.998Z,4.47
2023-01-10T16:56:22.754Z,3.42
2023-01-10T16:58:52.009Z,3.50
2023-01-10T17:01:29.897Z,3.33
2023-01-10T17:03:58.142Z,3.38
2023-01-10T17:06:25.076Z,3.90
2023-01-10T17:08:51.901Z,2.80
2023-01-10T17:11:27.997Z,3.17
2023-01-10T17:13:55.481Z,3.47
2023-01-10T17:16:22.412Z,3.67
2023-01-10T17:18:49.675Z,3.90
2023-01-10T17:21:20.043Z,3.70
2023-01-10T17:23:47.919Z,4.28
2023-01-10T17:26:18.030Z,3.35
2023-01-10T17:28:46.473Z,3.30
2023-01-10T17:31:13.543Z,3.25
2023-01-10T17:33:40.478Z,3.17
2023-01-10T17:36:08.673Z,3.17
2023-01-10T17:38:38.996Z,3.70
2023-01-10T17:41:07.410Z,2.95
2023-01-10T17:43:34.596Z,3.42
2023-01-10T17:46:05.799Z,2.88
2023-01-10T17:48:34.830Z,4.00
2023-01-10T17:51:03.617Z,3.25
2023-01-10T17:53:31.315Z,3.58
2023-01-10T17:56:00.101Z,2.80
2023-01-10T17:58:28.555Z,3.17
2023-01-10T18:00:55.981Z,3.08
2023-01-10T18:03:23.102Z,3.45
2023-01-10T18:05:55.737Z,3.40
2023-01-10T18:08:23.028Z,3.33
2023-01-10T18:10:50.892Z,4.15
2023-01-10T18:13:22.821Z,3.53
2023-01-10T18:15:50.427Z,3.40
2023-01-10T18:18:19.089Z,3.95
2023-01-10T18:20:45.987Z,4.32
2023-01-10T18:23:21.106Z,5.70
2023-01-10T18:26:05.108Z,3.38
2023-01-10T18:28:41.790Z,5.22
2023-01-10T18:31:13.699Z,4.13
2023-01-10T18:33:40.907Z,4.30
2023-01-10T18:36:14.827Z,4.10
2023-01-10T18:38:42.692Z,4.60
2023-01-10T18:41:09.709Z,4.28
2023-01-10T18:43:36.601Z,5.05
2023-01-10T18:46:11.261Z,4.50
2023-01-10T18:48:38.776Z,4.40
2023-01-10T18:51:06.763Z,4.15
2023-01-10T18:53:33.784Z,4.82
2023-01-10T18:56:04.660Z,5.35
2023-01-10T18:58:38.752Z,4.18
2023-01-10T19:01:18.101Z,4.47
2023-01-10T19:03:46.749Z,4.28
2023-01-10T19:06:16.412Z,4.30
2023-01-10T19:08:45.981Z,4.32
2023-01-10T19:11:16.047Z,4.65
2023-01-10T19:13:45.521Z,5.18
2023-01-10T19:16:15.384Z,4.40
2023-01-10T19:18:43.667Z,4.78
2023-01-10T19:21:17.078Z,4.05
2023-01-10T19:23:46.726Z,4.18
2023-01-10T19:26:14.906Z,4.80
2023-01-10T19:28:43.855Z,4.25
2023-01-10T19:31:20.143Z,4.00
2023-01-10T19:33:48.104Z,4.20
2023-01-10T19:36:15.868Z,4.35
2023-01-10T19:38:43.042Z,4.07
2023-01-10T19:41:10.931Z,4.18
2023-01-10T19:43:37.831Z,4.40
2023-01-10T19:46:09.731Z,3.92
2023-01-10T19:48:38.160Z,4.18
2023-01-10T19:51:13.433Z,3.85
2023-01-10T19:53:44.301Z,4.20
2023-01-10T19:56:13.891Z,3.55
2023-01-10T19:58:41.018Z,3.88
2023-01-10T20:01:13.393Z,4.30
2023-01-10T20:03:42.613Z,4.35
2023-01-10T20:06:14.266Z,3.40
2023-01-10T20:08:41.846Z,4.47
2023-01-10T20:11:08.891Z,3.38
2023-01-10T20:13:39.875Z,3.50
2023-01-10T20:16:07.504Z,3.10
2023-01-10T20:18:34.396Z,3.63
2023-01-10T20:21:06.746Z,3.10
2023-01-10T20:23:38.454Z,3.42
2023-01-10T20:26:15.010Z,4.22
2023-01-10T20:31:17.051Z,3.70
2023-01-10T20:33:44.036Z,3.58
2023-01-10T20:36:15.611Z,4.10
2023-01-10T20:38:43.006Z,3.45
2023-01-10T20:41:16.680Z,3.60
2023-01-10T20:43:44.514Z,2.95
2023-01-10T20:46:15.093Z,3.40
2023-01-10T20:48:42.506Z,3.75
2023-01-10T20:51:14.255Z,2.90
2023-01-10T20:53:41.126Z,3.65
2023-01-10T20:56:14.523Z,3.38
2023-01-10T20:58:41.779Z,3.05
2023-01-10T21:01:10.475Z,2.88
2023-01-10T21:03:37.682Z,3.50
2023-01-10T21:06:04.953Z,2.55
2023-01-10T21:08:32.666Z,3.65
2023-01-10T21:10:59.922Z,2.88
2023-01-10T21:13:27.394Z,2.97
2023-01-10T21:15:56.779Z,3.97
2023-01-10T21:18:29.704Z,2.78
2023-01-10T21:20:57.941Z,2.15
2023-01-10T21:23:26.990Z,3.22
2023-01-10T21:26:00.644Z,3.08
2023-01-10T21:28:27.862Z,2.70
2023-01-10T21:30:55.095Z,2.70
2023-01-10T21:33:22.115Z,3.03
2023-01-10T21:35:57.870Z,2.80
2023-01-10T21:38:27.257Z,3.15
2023-01-10T21:41:06.578Z,2.63
2023-01-10T21:43:33.491Z,3.08
2023-01-10T21:46:01.744Z,3.25
2023-01-10T21:48:29.627Z,3.33
2023-01-10T21:50:57.720Z,3.40
2023-01-10T21:53:24.942Z,3.20
2023-01-10T21:55:51.896Z,2.97
2023-01-10T21:58:19.320Z,3.08
2023-01-10T22:00:46.821Z,2.80
2023-01-10T22:03:13.805Z,3.05
2023-01-10T22:05:40.911Z,2.85
2023-01-10T22:08:07.827Z,3.30
2023-01-10T22:10:34.739Z,2.75
2023-01-10T22:13:01.638Z,2.92
2023-01-10T22:15:29.071Z,3.42
2023-01-10T22:17:57.994Z,2.78
2023-01-10T22:20:25.093Z,2.45
2023-01-10T22:22:51.944Z,2.70
2023-01-10T22:25:19.056Z,2.78
2023-01-10T22:27:46.250Z,3.03
2023-01-10T22:30:13.212Z,3.28
2023-01-10T22:32:40.468Z,2.90
2023-01-10T22:35:07.816Z,2.88
2023-01-10T22:37:34.887Z,2.95
2023-01-10T22:40:01.768Z,2.47
2023-01-10T22:42:28.754Z,2.33
2023-01-10T22:44:55.751Z,2.67
2023-01-10T22:47:22.675Z,2.30
2023-01-10T22:49:49.889Z,3.47
2023-01-10T22:52:16.800Z,2.80
2023-01-10T22:54:43.768Z,3.20
2023-01-10T22:57:10.848Z,2.67
2023-01-10T22:59:37.723Z,2.70
2023-01-10T23:02:04.985Z,2.45
2023-01-10T23:04:31.889Z,2.35
2023-01-10T23:06:59.711Z,2.60
2023-01-10T23:09:26.654Z,2.45
2023-01-10T23:11:53.718Z,2.40
2023-01-10T23:14:20.778Z,2.50
2023-01-10T23:16:47.707Z,2.35
2023-01-10T23:19:15.107Z,2.63
2023-01-10T23:21:42.076Z,2.28
2023-01-10T23:24:09.357Z,2.58
2023-01-10T23:26:36.173Z,2.53
2023-01-10T23:29:03.661Z,2.90
2023-01-10T23:31:32.015Z,2.40
2023-01-10T23:33:59.207Z,2.13
2023-01-10T23:36:26.237Z,2.63
2023-01-10T23:38:53.160Z,2.15
2023-01-10T23:41:21.312Z,2.30
2023-01-10T23:43:50.137Z,2.45
2023-01-10T23:46:18.203Z,2.55
2023-01-10T23:48:46.478Z,2.45
2023-01-10T23:51:14.259Z,2.60
2023-01-10T23:53:41.475Z,1.83
2023-01-10T23:56:11.654Z,2.20
2023-01-10T23:58:39.485Z,2.38
